createdAt,value
2023-04-23T00:01:43.669Z,85.64
2023-04-23T00:04:10.481Z,84.86
2023-04-23T00:06:37.307Z,85.34
2023-04-23T00:09:04.233Z,84.91
2023-04-23T00:11:31.166Z,85.17
2023-04-23T00:13:58.004Z,85.23
2023-04-23T00:16:25.203Z,85.73
2023-04-23T00:18:51.962Z,84.58
2023-04-23T00:21:18.659Z,83.43
2023-04-23T00:23:45.461Z,82.98
2023-04-23T00:26:12.153Z,82.65
2023-04-23T00:28:38.846Z,81.96
2023-04-23T00:31:05.747Z,81.74
2023-04-23T00:33:32.339Z,82.32
2023-04-23T00:35:59.073Z,81.77
2023-04-23T00:38:26.647Z,82.86
2023-04-23T00:40:53.324Z,83.13
2023-04-23T00:43:20.667Z,82.93
2023-04-23T00:45:47.892Z,82.95
2023-04-23T00:48:14.645Z,83.67
2023-04-23T00:50:42.032Z,82.83
2023-04-23T00:53:08.900Z,82.10
2023-04-23T00:55:35.591Z,82.43
2023-04-23T00:58:02.296Z,82.64
2023-04-23T01:00:29.085Z,83.56
2023-04-23T01:02:55.821Z,84.11
2023-04-23T01:05:22.681Z,84.24
2023-04-23T01:07:49.249Z,84.08
2023-04-23T01:10:16.925Z,83.82
2023-04-23T01:12:43.600Z,83.63
2023-04-23T01:15:10.753Z,82.25
2023-04-23T01:17:38.548Z,80.60
2023-04-23T01:20:06.748Z,80.90
2023-04-23T01:22:37.754Z,80.87
2023-04-23T01:25:04.773Z,80.66
2023-04-23T01:27:32.223Z,80.89
2023-04-23T01:29:59.019Z,82.89
2023-04-23T01:32:25.890Z,82.83
2023-04-23T01:34:54.106Z,82.18
2023-04-23T01:37:21.245Z,82.56
2023-04-23T01:39:47.830Z,80.32
2023-04-23T01:42:14.560Z,79.95
2023-04-23T01:44:41.680Z,81.31
2023-04-23T01:47:08.539Z,85.57
2023-04-23T01:49:35.093Z,85.59
2023-04-23T01:52:01.807Z,84.50
2023-04-23T01:54:28.519Z,83.84
2023-04-23T01:56:55.907Z,83.76
2023-04-23T01:59:22.928Z,83.75
2023-04-23T02:01:49.788Z,85.28
2023-04-23T02:04:17.098Z,84.76
2023-04-23T02:06:47.173Z,84.72
2023-04-23T02:09:14.014Z,84.10
2023-04-23T02:11:40.656Z,84.53
2023-04-23T02:14:08.013Z,84.21
2023-04-23T02:16:35.640Z,85.17
2023-04-23T02:19:02.275Z,86.25
2023-04-23T02:21:29.768Z,85.74
2023-04-23T02:23:56.344Z,86.18
2023-04-23T02:26:23.740Z,86.74
2023-04-23T02:28:50.988Z,87.85
2023-04-23T02:31:17.964Z,87.48
2023-04-23T02:33:44.905Z,87.13
2023-04-23T02:36:12.319Z,87.38
2023-04-23T02:38:42.387Z,88.29
2023-04-23T02:41:09.249Z,87.57
2023-04-23T02:43:35.869Z,87.08
2023-04-23T02:46:08.522Z,87.67
2023-04-23T02:48:39.731Z,88.77
2023-04-23T02:51:07.295Z,88.85
2023-04-23T02:53:33.957Z,88.62
2023-04-23T02:56:01.608Z,87.05
2023-04-23T02:58:28.409Z,87.52
2023-04-23T03:00:55.170Z,87.34
2023-04-23T03:03:22.217Z,88.29
2023-04-23T03:05:48.948Z,87.99
2023-04-23T03:08:15.657Z,88.21
2023-04-23T03:10:42.349Z,88.05
2023-04-23T03:13:08.957Z,87.94
2023-04-23T03:15:36.002Z,88.12
2023-04-23T03:18:04.490Z,88.21
2023-04-23T03:20:31.289Z,90.16
2023-04-23T03:22:58.227Z,88.23
2023-04-23T03:25:25.831Z,87.06
2023-04-23T03:27:53.084Z,89.07
2023-04-23T03:30:19.965Z,89.64
2023-04-23T03:32:46.669Z,90.35
2023-04-23T03:35:13.344Z,90.87
2023-04-23T03:37:40.008Z,91.60
2023-04-23T03:40:07.905Z,92.70
2023-04-23T03:42:34.738Z,93.26
2023-04-23T03:45:01.484Z,90.83
2023-04-23T03:47:28.250Z,89.96
2023-04-23T03:49:55.030Z,89.02
2023-04-23T03:52:21.734Z,89.77
2023-04-23T03:54:48.362Z,89.85
2023-04-23T03:57:15.092Z,89.84
2023-04-23T03:59:41.757Z,88.42
2023-04-23T04:02:08.506Z,89.26
2023-04-23T04:04:36.700Z,88.35
2023-04-23T04:07:03.627Z,88.69
2023-04-23T04:09:30.390Z,88.88
2023-04-23T04:11:57.018Z,88.94
2023-04-23T04:14:23.636Z,90.14
2023-04-23T04:16:50.795Z,89.21
2023-04-23T04:19:17.578Z,89.29
2023-04-23T04:21:44.241Z,89.80
2023-04-23T04:24:11.643Z,89.61
2023-04-23T04:26:38.383Z,88.43
2023-04-23T04:29:05.101Z,88.74
2023-04-23T04:31:32.422Z,89.58
2023-04-23T04:33:59.219Z,90.34
2023-04-23T04:36:27.259Z,89.47
2023-04-23T04:38:56.168Z,89.34
2023-04-23T04:41:25.498Z,90.27
2023-04-23T04:43:52.358Z,91.38
2023-04-23T04:46:20.846Z,90.76
2023-04-23T04:48:50.466Z,90.35
2023-04-23T04:51:17.126Z,89.88
2023-04-23T04:53:43.716Z,89.00
2023-04-23T04:56:10.388Z,89.15
2023-04-23T04:58:37.025Z,89.61
2023-04-23T05:01:03.995Z,89.48
2023-04-23T05:03:30.915Z,89.59
2023-04-23T05:05:58.956Z,90.91
2023-04-23T05:08:25.698Z,90.84
2023-04-23T05:10:54.043Z,89.88
2023-04-23T05:13:20.846Z,90.19
2023-04-23T05:15:47.442Z,88.98
2023-04-23T05:18:14.174Z,88.35
2023-04-23T05:20:41.657Z,89.17
2023-04-23T05:23:08.389Z,88.79
2023-04-23T05:25:35.784Z,88.17
2023-04-23T05:28:02.497Z,87.95
2023-04-23T05:30:29.279Z,87.27
2023-04-23T05:32:56.121Z,86.88
2023-04-23T05:35:22.863Z,87.11
2023-04-23T05:37:49.542Z,87.19
2023-04-23T05:40:16.201Z,85.97
2023-04-23T05:42:42.939Z,86.14
2023-04-23T05:45:10.010Z,86.19
2023-04-23T05:47:36.898Z,84.59
2023-04-23T05:50:03.707Z,85.33
2023-04-23T05:52:35.721Z,84.87
2023-04-23T05:55:02.497Z,85.04
2023-04-23T05:57:29.170Z,85.69
2023-04-23T05:59:55.809Z,84.25
2023-04-23T06:02:24.539Z,86.48
2023-04-23T06:04:52.157Z,86.19
2023-04-23T06:07:19.294Z,85.32
2023-04-23T06:09:45.892Z,84.39
2023-04-23T06:12:12.558Z,83.65
2023-04-23T06:14:39.573Z,82.51
2023-04-23T06:17:06.512Z,82.71
2023-04-23T06:19:33.156Z,81.92
2023-04-23T06:21:59.900Z,80.97
2023-04-23T06:24:26.548Z,80.54
2023-04-23T06:26:53.211Z,81.16
2023-04-23T06:29:19.804Z,81.03
2023-04-23T06:31:46.545Z,80.12
2023-04-23T06:34:13.211Z,80.25
2023-04-23T06:36:40.132Z,80.15
2023-04-23T06:39:06.950Z,76.86
2023-04-23T06:41:33.531Z,76.88
2023-04-23T06:44:00.604Z,77.10
2023-04-23T06:46:27.251Z,79.10
2023-04-23T06:48:53.950Z,76.07
2023-04-23T06:51:20.618Z,75.88
2023-04-23T06:53:47.396Z,76.80
2023-04-23T06:56:14.096Z,76.87
2023-04-23T06:58:41.245Z,75.23
2023-04-23T07:01:08.120Z,74.38
2023-04-23T07:03:36.467Z,73.59
2023-04-23T07:06:03.376Z,75.44
2023-04-23T07:08:30.119Z,74.98
2023-04-23T07:10:56.823Z,74.31
2023-04-23T07:13:24.176Z,72.89
2023-04-23T07:15:51.085Z,72.32
2023-04-23T07:18:17.945Z,73.38
2023-04-23T07:20:44.600Z,72.71
2023-04-23T07:23:11.316Z,71.31
2023-04-23T07:25:38.099Z,71.40
2023-04-23T07:28:04.719Z,70.62
2023-04-23T07:30:31.452Z,70.68
2023-04-23T07:32:58.283Z,68.81
2023-04-23T07:35:25.064Z,68.78
2023-04-23T07:37:53.989Z,68.34
2023-04-23T07:40:22.378Z,71.25
2023-04-23T07:42:49.008Z,69.42
2023-04-23T07:45:15.825Z,68.97
2023-04-23T07:47:42.444Z,67.56
2023-04-23T07:50:09.836Z,65.21
2023-04-23T07:52:36.534Z,67.63
2023-04-23T07:55:03.233Z,66.63
2023-04-23T07:57:29.889Z,64.13
2023-04-23T07:59:56.465Z,64.42
2023-04-23T08:02:26.253Z,64.96
2023-04-23T08:04:53.585Z,66.26
2023-04-23T08:07:20.658Z,65.99
2023-04-23T08:09:47.746Z,65.65
2023-04-23T08:12:17.218Z,62.19
2023-04-23T08:14:44.546Z,57.40
2023-04-23T08:17:11.245Z,59.34
2023-04-23T08:19:37.908Z,63.38
2023-04-23T08:22:04.615Z,57.85
2023-04-23T08:24:31.511Z,58.35
2023-04-23T08:26:58.206Z,57.57
2023-04-23T08:29:25.042Z,58.96
2023-04-23T08:31:51.656Z,57.83
2023-04-23T08:34:18.313Z,56.68
2023-04-23T08:36:46.444Z,58.83
2023-04-23T08:39:13.130Z,57.51
2023-04-23T08:41:43.258Z,56.66
2023-04-23T08:44:21.895Z,53.27
2023-04-23T08:46:49.347Z,53.75
2023-04-23T08:49:16.808Z,54.25
2023-04-23T08:51:50.921Z,53.58
2023-04-23T08:54:21.836Z,53.80
2023-04-23T08:56:48.486Z,51.39
2023-04-23T08:59:15.405Z,52.01
2023-04-23T09:01:42.035Z,50.76
2023-04-23T09:04:09.122Z,52.72
2023-04-23T09:06:36.551Z,48.90
2023-04-23T09:09:03.274Z,50.74
2023-04-23T09:11:29.980Z,48.92
2023-04-23T09:13:56.713Z,53.64
2023-04-23T09:16:23.444Z,52.75
2023-04-23T09:18:51.567Z,49.42
2023-04-23T09:21:18.335Z,48.70
2023-04-23T09:23:45.034Z,46.38
2023-04-23T09:26:19.286Z,48.22
2023-04-23T09:28:46.761Z,47.56
2023-04-23T09:31:14.555Z,47.07
2023-04-23T09:33:41.150Z,49.39
2023-04-23T09:36:14.114Z,50.62
2023-04-23T09:38:43.731Z,46.67
2023-04-23T09:41:28.228Z,46.10
2023-04-23T09:43:55.451Z,47.30
2023-04-23T09:46:42.225Z,45.11
2023-04-23T09:49:10.465Z,48.65
2023-04-23T09:51:41.615Z,50.15
2023-04-23T09:54:15.605Z,49.15
2023-04-23T09:56:42.876Z,48.84
2023-04-23T09:59:46.258Z,48.84
2023-04-23T10:02:10.852Z,48.80
2023-04-23T10:04:38.471Z,51.50
2023-04-23T10:07:18.828Z,50.91
2023-04-23T10:09:46.752Z,45.15
2023-04-23T10:12:28.925Z,49.58
2023-04-23T10:15:00.279Z,46.81
2023-04-23T10:17:27.016Z,44.50
2023-04-23T10:19:53.633Z,43.13
2023-04-23T10:22:20.810Z,45.27
2023-04-23T10:24:49.533Z,44.81
2023-04-23T10:27:28.551Z,44.71
2023-04-23T10:29:59.825Z,48.29
2023-04-23T10:32:26.563Z,49.07
2023-04-23T10:34:53.452Z,49.88
2023-04-23T10:37:20.370Z,46.00
2023-04-23T10:39:50.354Z,46.72
2023-04-23T10:42:17.130Z,44.48
2023-04-23T10:47:15.022Z,47.33
2023-04-23T10:49:42.021Z,45.03
2023-04-23T10:52:20.068Z,47.67
2023-04-23T10:54:57.938Z,48.11
2023-04-23T10:57:24.635Z,45.19
2023-04-23T10:59:52.507Z,48.73
2023-04-23T11:02:19.325Z,46.61
2023-04-23T11:04:47.124Z,49.59
2023-04-23T11:07:14.017Z,45.05
2023-04-23T11:09:45.940Z,45.44
2023-04-23T11:12:14.032Z,47.89
2023-04-23T11:14:47.355Z,45.94
2023-04-23T11:17:18.522Z,46.75
2023-04-23T11:20:03.854Z,43.45
2023-04-23T11:22:37.499Z,45.18
2023-04-23T11:25:05.440Z,45.67
2023-04-23T11:27:32.615Z,42.68
2023-04-23T11:30:00.050Z,41.09
2023-04-23T11:32:27.930Z,43.24
2023-04-23T11:34:54.684Z,48.33
2023-04-23T11:37:21.386Z,48.41
2023-04-23T11:39:49.303Z,44.04
2023-04-23T11:42:16.617Z,44.23
2023-04-23T11:44:46.464Z,43.51
2023-04-23T11:47:14.204Z,39.97
2023-04-23T11:49:42.933Z,42.67
2023-04-23T11:52:10.386Z,43.43
2023-04-23T11:54:37.053Z,38.77
2023-04-23T11:57:05.048Z,40.89
2023-04-23T11:59:31.648Z,40.56
2023-04-23T12:01:59.105Z,39.12
2023-04-23T12:04:29.810Z,41.22
2023-04-23T12:06:57.839Z,36.90
2023-04-23T12:09:26.979Z,36.17
2023-04-23T12:11:53.703Z,35.17
2023-04-23T12:14:26.960Z,38.26
2023-04-23T12:16:53.689Z,35.15
2023-04-23T12:19:22.036Z,33.11
2023-04-23T12:21:49.795Z,34.40
2023-04-23T12:24:16.542Z,35.60
2023-04-23T12:26:46.359Z,35.26
2023-04-23T12:29:13.507Z,33.86
2023-04-23T12:31:40.426Z,32.86
2023-04-23T12:34:08.431Z,31.76
2023-04-23T12:36:38.557Z,34.95
2023-04-23T12:39:36.137Z,38.55
2023-04-23T12:42:05.156Z,35.04
2023-04-23T12:44:33.535Z,35.54
2023-04-23T12:47:03.522Z,34.76
2023-04-23T12:49:30.401Z,32.81
2023-04-23T12:52:02.803Z,36.08
2023-04-23T12:54:33.768Z,34.95
2023-04-23T12:57:02.803Z,34.33
2023-04-23T12:59:29.980Z,32.14
2023-04-23T13:01:56.804Z,33.33
2023-04-23T13:04:23.485Z,37.59
2023-04-23T13:06:51.398Z,37.81
2023-04-23T13:09:18.156Z,34.57
2023-04-23T13:11:46.228Z,37.72
2023-04-23T13:14:12.828Z,35.60
2023-04-23T13:16:39.553Z,35.36
2023-04-23T13:19:06.274Z,34.82
2023-04-23T13:21:32.834Z,35.91
2023-04-23T13:23:59.522Z,37.95
2023-04-23T13:26:27.065Z,37.36
2023-04-23T13:28:53.700Z,36.39
2023-04-23T13:31:21.271Z,35.62
2023-04-23T13:33:47.912Z,37.33
2023-04-23T13:36:14.607Z,37.15
2023-04-23T13:38:41.607Z,38.04
2023-04-23T13:41:08.288Z,39.48
2023-04-23T13:43:34.944Z,38.17
2023-04-23T13:46:01.772Z,36.96
2023-04-23T13:48:31.560Z,38.10
2023-04-23T13:51:01.647Z,38.15
2023-04-23T13:53:28.327Z,37.39
2023-04-23T13:55:55.946Z,38.98
2023-04-23T13:58:23.348Z,38.86
2023-04-23T14:00:50.280Z,38.79
2023-04-23T14:03:17.302Z,40.29
2023-04-23T14:05:43.988Z,38.22
2023-04-23T14:08:10.994Z,37.57
2023-04-23T14:10:39.031Z,35.75
2023-04-23T14:13:05.839Z,35.64
2023-04-23T14:15:32.453Z,35.82
2023-04-23T14:17:59.885Z,35.73
2023-04-23T14:20:26.637Z,34.55
2023-04-23T14:22:58.520Z,35.77
2023-04-23T14:25:46.633Z,33.20
2023-04-23T14:28:39.897Z,33.52
2023-04-23T14:31:07.098Z,33.78
2023-04-23T14:33:33.790Z,30.37
2023-04-23T14:36:00.476Z,31.52
2023-04-23T14:38:27.151Z,32.01
2023-04-23T14:40:53.862Z,33.69
2023-04-23T14:43:20.541Z,33.57
2023-04-23T14:45:47.314Z,34.45
2023-04-23T14:48:14.151Z,35.21
2023-04-23T14:50:40.822Z,35.05
2023-04-23T14:53:10.060Z,35.24
2023-04-23T14:55:36.782Z,36.68
2023-04-23T14:58:03.501Z,41.54
2023-04-23T15:00:30.275Z,41.50
2023-04-23T15:02:57.135Z,43.87
2023-04-23T15:05:24.303Z,43.49
2023-04-23T15:07:51.858Z,44.86
2023-04-23T15:10:20.394Z,45.06
2023-04-23T15:13:35.596Z,45.76
2023-04-23T15:16:03.069Z,46.11
2023-04-23T15:18:29.803Z,47.10
2023-04-23T15:20:56.458Z,46.06
2023-04-23T15:23:24.306Z,46.97
2023-04-23T15:25:51.027Z,46.24
2023-04-23T15:28:17.859Z,45.49
2023-04-23T15:30:47.725Z,45.41
2023-04-23T15:33:14.473Z,45.17
2023-04-23T15:35:41.133Z,45.17
2023-04-23T15:38:07.768Z,45.55
2023-04-23T15:40:42.048Z,46.86
2023-04-23T15:43:12.554Z,45.53
2023-04-23T15:45:39.546Z,46.90
2023-04-23T15:48:06.283Z,46.88
2023-04-23T15:50:32.952Z,46.55
2023-04-23T15:53:01.483Z,47.58
2023-04-23T15:55:28.910Z,47.77
2023-04-23T15:57:55.784Z,47.66
2023-04-23T16:00:22.635Z,47.99
2023-04-23T16:02:49.456Z,48.80
2023-04-23T16:05:16.534Z,49.13
2023-04-23T16:07:44.388Z,49.69
2023-04-23T16:10:11.302Z,50.29
2023-04-23T16:12:38.215Z,49.96
2023-04-23T16:15:05.339Z,49.91
2023-04-23T16:17:31.992Z,50.33
2023-04-23T16:19:58.748Z,50.07
2023-04-23T16:22:25.582Z,50.92
2023-04-23T16:24:52.184Z,51.31
2023-04-23T16:27:18.879Z,50.95
2023-04-23T16:29:45.496Z,50.60
2023-04-23T16:32:12.252Z,50.91
2023-04-23T16:34:38.917Z,50.05
2023-04-23T16:37:05.933Z,49.48
2023-04-23T16:39:33.241Z,49.96
2023-04-23T16:42:00.010Z,50.24
2023-04-23T16:44:26.627Z,49.89
2023-04-23T16:46:53.268Z,49.77
2023-04-23T16:49:20.032Z,49.75
2023-04-23T16:51:46.635Z,50.46
2023-04-23T16:54:13.318Z,50.97
2023-04-23T16:56:39.960Z,51.74
2023-04-23T16:59:06.714Z,52.01
2023-04-23T17:01:33.354Z,52.08
2023-04-23T17:04:00.199Z,52.86
2023-04-23T17:06:28.143Z,53.31
2023-04-23T17:08:55.128Z,53.09
2023-04-23T17:11:23.189Z,52.87
2023-04-23T17:13:50.313Z,53.21
2023-04-23T17:16:17.077Z,52.72
2023-04-23T17:18:43.839Z,52.30
2023-04-23T17:21:10.807Z,53.03
2023-04-23T17:23:37.399Z,53.43
2023-04-23T17:26:04.127Z,54.05
2023-04-23T17:28:30.790Z,55.19
2023-04-23T17:30:57.489Z,56.43
2023-04-23T17:33:24.443Z,57.28
2023-04-23T17:35:52.257Z,59.63
2023-04-23T17:38:20.761Z,62.00
2023-04-23T17:40:48.459Z,62.10
2023-04-23T17:43:15.597Z,59.53
2023-04-23T17:45:42.402Z,59.03
2023-04-23T17:48:09.436Z,59.33
2023-04-23T17:50:36.488Z,59.91
2023-04-23T17:53:03.918Z,58.86
2023-04-23T17:55:32.868Z,58.33
2023-04-23T17:58:06.632Z,58.30
2023-04-23T18:00:36.946Z,58.67
2023-04-23T18:03:04.098Z,58.15
2023-04-23T18:05:31.278Z,60.71
2023-04-23T18:07:57.997Z,61.56
2023-04-23T18:10:24.755Z,63.75
2023-04-23T18:12:51.519Z,62.83
2023-04-23T18:15:18.278Z,62.87
2023-04-23T18:17:45.528Z,62.69
2023-04-23T18:20:13.452Z,63.24
2023-04-23T18:22:41.297Z,66.49
2023-04-23T18:25:10.151Z,65.86
2023-04-23T18:27:36.770Z,67.31
2023-04-23T18:30:05.566Z,67.79
2023-04-23T18:32:37.479Z,66.48
2023-04-23T18:35:08.097Z,67.35
2023-04-23T18:38:04.765Z,68.78
2023-04-23T18:40:31.416Z,70.39
2023-04-23T18:42:58.175Z,69.40
2023-04-23T18:45:24.931Z,68.52
2023-04-23T18:47:56.465Z,68.89
2023-04-23T18:50:30.371Z,68.18
2023-04-23T18:52:57.142Z,68.52
2023-04-23T18:55:23.827Z,69.39
2023-04-23T18:57:50.393Z,70.75
2023-04-23T19:00:17.241Z,70.76
2023-04-23T19:02:43.963Z,69.65
2023-04-23T19:05:11.385Z,70.92
2023-04-23T19:07:40.501Z,71.00
2023-04-23T19:10:07.878Z,70.03
2023-04-23T19:12:34.556Z,71.43
2023-04-23T19:15:01.244Z,72.90
2023-04-23T19:17:28.091Z,73.59
2023-04-23T19:19:54.940Z,72.33
2023-04-23T19:22:25.024Z,73.78
2023-04-23T19:24:51.729Z,73.42
2023-04-23T19:27:18.322Z,73.99
2023-04-23T19:29:46.588Z,74.09
2023-04-23T19:32:13.277Z,76.05
2023-04-23T19:34:40.055Z,75.87
2023-04-23T19:37:07.865Z,75.58
2023-04-23T19:39:34.492Z,74.72
2023-04-23T19:42:02.643Z,75.20
2023-04-23T19:44:29.570Z,74.42
2023-04-23T19:46:56.702Z,75.10
2023-04-23T19:49:23.510Z,76.10
2023-04-23T19:51:52.293Z,77.25
2023-04-23T19:54:18.944Z,75.96
2023-04-23T19:56:45.674Z,76.56
2023-04-23T19:59:15.350Z,75.85
2023-04-23T20:01:41.998Z,78.92
2023-04-23T20:04:09.402Z,77.63
2023-04-23T20:06:36.633Z,75.43
2023-04-23T20:09:17.946Z,74.65
2023-04-23T20:11:45.857Z,78.16
2023-04-23T20:14:13.039Z,77.80
2023-04-23T20:16:40.580Z,79.27
2023-04-23T20:19:10.952Z,78.99
2023-04-23T20:21:38.990Z,81.07
2023-04-23T20:24:07.367Z,79.92
2023-04-23T20:26:35.019Z,81.51
2023-04-23T20:29:01.770Z,81.00
2023-04-23T20:31:28.555Z,79.65
2023-04-23T20:33:55.813Z,81.01
2023-04-23T20:36:23.418Z,80.27
2023-04-23T20:38:50.186Z,77.45
2023-04-23T20:41:17.184Z,76.12
2023-04-23T20:43:43.880Z,75.71
2023-04-23T20:46:10.584Z,74.26
2023-04-23T20:48:37.445Z,76.92
2023-04-23T20:51:04.218Z,77.87
2023-04-23T20:53:30.926Z,78.34
2023-04-23T20:55:57.802Z,76.69
2023-04-23T20:58:24.506Z,75.56
2023-04-23T21:00:51.411Z,75.91
2023-04-23T21:03:18.905Z,78.25
2023-04-23T21:05:45.795Z,80.34
2023-04-23T21:08:13.744Z,81.14
2023-04-23T21:10:41.148Z,81.37
2023-04-23T21:13:08.515Z,79.43
2023-04-23T21:15:35.601Z,78.96
2023-04-23T21:18:02.865Z,77.30
2023-04-23T21:20:29.864Z,79.73
2023-04-23T21:22:56.521Z,82.80
2023-04-23T21:25:23.166Z,80.75
2023-04-23T21:27:50.491Z,79.44
2023-04-23T21:30:43.100Z,80.55
2023-04-23T21:33:09.833Z,80.13
2023-04-23T21:35:36.554Z,82.21
2023-04-23T21:38:03.240Z,82.96
2023-04-23T21:40:29.979Z,82.63
2023-04-23T21:42:56.728Z,81.66
2023-04-23T21:45:23.706Z,80.96
2023-04-23T21:47:51.096Z,79.74
2023-04-23T21:50:17.728Z,78.60
2023-04-23T21:52:44.594Z,77.28
2023-04-23T21:55:12.612Z,75.76
2023-04-23T21:57:39.217Z,76.26
2023-04-23T22:00:06.947Z,76.04
2023-04-23T22:02:33.928Z,78.21
2023-04-23T22:05:00.810Z,77.31
2023-04-23T22:07:29.463Z,78.15
2023-04-23T22:09:57.231Z,81.93
2023-04-23T22:12:23.958Z,83.57
2023-04-23T22:14:50.732Z,83.88
2023-04-23T22:17:18.848Z,82.88
2023-04-23T22:19:45.961Z,82.39
2023-04-23T22:22:12.684Z,81.85
2023-04-23T22:24:39.401Z,80.78
2023-04-23T22:27:08.709Z,80.36
2023-04-23T22:29:35.328Z,79.84
2023-04-23T22:32:02.100Z,79.42
2023-04-23T22:34:28.866Z,79.84
2023-04-23T22:36:55.682Z,79.62
2023-04-23T22:39:22.460Z,79.09
2023-04-23T22:41:49.104Z,78.74
2023-04-23T22:44:15.750Z,80.79
2023-04-23T22:46:42.883Z,79.63
2023-04-23T22:49:11.240Z,80.52
2023-04-23T22:51:39.163Z,80.90
2023-04-23T22:54:05.992Z,80.50
2023-04-23T22:56:32.719Z,80.07
2023-04-23T22:58:59.434Z,80.81
2023-04-23T23:01:26.433Z,80.65
2023-04-23T23:03:53.210Z,81.07
2023-04-23T23:06:19.926Z,81.97
2023-04-23T23:08:46.611Z,82.62
2023-04-23T23:11:13.291Z,81.69
2023-04-23T23:13:40.657Z,80.91
2023-04-23T23:16:07.305Z,80.82
2023-04-23T23:18:34.052Z,81.90
2023-04-23T23:21:01.137Z,83.11
2023-04-23T23:23:27.808Z,82.47
2023-04-23T23:25:55.150Z,82.02
2023-04-23T23:28:21.854Z,81.80
2023-04-23T23:30:49.195Z,82.79
2023-04-23T23:33:16.550Z,84.86
2023-04-23T23:35:43.766Z,85.25
2023-04-23T23:38:10.906Z,84.25
2023-04-23T23:40:37.829Z,84.19
2023-04-23T23:43:04.493Z,85.16
2023-04-23T23:45:31.776Z,85.21
2023-04-23T23:47:58.386Z,86.31
2023-04-23T23:50:26.160Z,86.04
2023-04-23T23:52:53.734Z,87.12
2023-04-23T23:55:20.441Z,88.15
2023-04-23T23:57:47.068Z,86.96
